Time,TemperatureF,DewpointF,PressureIn,WindDirection,WindDirectionDegrees,WindSpeedMPH,WindSpeedGustMPH,Humidity,HourlyPrecipIn,Conditions,Clouds,dailyrainin,SoftwareType,DateUTC
2013-11-06 00:00:00,39.7,30.4,30.39,East,90,0.0,0.0,69,0.00,CLR,,0.00,WeatherDisplay:10.37,2013-11-06 05:00:00,
2013-11-06 00:05:00,39.7,30.4,30.39,East,90,0.0,0.0,69,0.00,CLR,,0.00,WeatherDisplay:10.37,2013-11-06 05:05:00,
2013-11-06 00:10:00,39.6,30.2,30.39,East,90,0.0,0.0,69,0.00,CLR,,0.00,WeatherDisplay:10.37,2013-11-06 05:10:00,
2013-11-06 00:15:00,39.4,30.1,30.42,East,90,0.0,0.0,69,0.00,CLR,,0.00,WeatherDisplay:10.37,2013-11-06 05:15:00,
2013-11-06 00:20:00,39.4,30.1,30.42,East,90,0.0,0.0,69,0.00,CLR,,0.00,WeatherDisplay:10.37,2013-11-06 05:20:00,
2013-11-06 00:25:00,39.4,30.1,30.42,East,90,0.0,0.0,69,0.00,CLR,,0.00,WeatherDisplay:10.37,2013-11-06 05:25:00,
2013-11-06 00:30:00,39.2,29.9,30.42,East,90,0.0,0.0,69,0.00,CLR,,0.00,WeatherDisplay:10.37,2013-11-06 05:30:00,
2013-11-06 00:40:00,39.2,29.9,30.42,East,90,0.0,0.0,69,0.00,CLR,,0.00,WeatherDisplay:10.37,2013-11-06 05:40:00,
2013-11-06 00:45:00,39.2,30.2,30.39,East,90,0.0,0.0,70,0.00,CLR,,0.00,WeatherDisplay:10.37,2013-11-06 05:45:00,
2013-11-06 00:50:00,39.0,30.1,30.39,East,90,0.0,0.0,70,0.00,CLR,,0.00,WeatherDisplay:10.37,2013-11-06 05:50:00,
2013-11-06 00:55:00,39.0,30.1,30.39,East,90,0.0,0.0,70,0.00,CLR,,0.00,WeatherDisplay:10.37,2013-11-06 05:55:00,
2013-11-06 01:00:00,39.0,30.1,30.39,East,90,0.0,0.0,70,0.00,CLR,,0.00,WeatherDisplay:10.37,2013-11-06 06:00:00,
2013-11-06 01:05:00,39.0,30.1,30.39,East,90,0.0,0.0,70,0.00,CLR,,0.00,WeatherDisplay:10.37,2013-11-06 06:05:00,
2013-11-06 01:10:00,39.0,30.1,30.39,East,90,0.0,0.0,70,0.00,CLR,,0.00,WeatherDisplay:10.37,2013-11-06 06:10:00,
2013-11-06 01:15:00,39.0,30.1,30.39,East,90,0.0,0.0,70,0.00,CLR,,0.00,WeatherDisplay:10.37,2013-11-06 06:15:00,
2013-11-06 01:20:00,39.2,30.2,30.39,East,90,0.0,0.0,70,0.00,CLR,,0.00,WeatherDisplay:10.37,2013-11-06 06:20:00,
2013-11-06 01:25:00,39.2,30.2,30.39,East,90,0.0,0.0,70,0.00,CLR,,0.00,WeatherDisplay:10.37,2013-11-06 06:25:00,
2013-11-06 01:30:00,39.2,30.2,30.39,East,90,0.0,0.0,70,0.00,CLR,,0.00,WeatherDisplay:10.37,2013-11-06 06:30:00,
2013-11-06 01:35:00,39.2,30.2,30.39,East,90,0.0,0.0,70,0.00,CLR,,0.00,WeatherDisplay:10.37,2013-11-06 06:35:00,
2013-11-06 01:40:00,39.2,30.2,30.39,East,90,0.0,0.0,70,0.00,CLR,,0.00,WeatherDisplay:10.37,2013-11-06 06:40:00,
2013-11-06 01:45:00,39.2,30.6,30.39,East,90,0.0,0.0,71,0.00,CLR,,0.00,WeatherDisplay:10.37,2013-11-06 06:45:00,
2013-11-06 01:50:00,39.2,30.6,30.39,East,90,0.0,0.0,71,0.00,CLR,,0.00,WeatherDisplay:10.37,2013-11-06 06:50:00,
2013-11-06 01:55:00,39.2,30.6,30.39,East,90,0.0,0.0,71,0.00,CLR,,0.00,WeatherDisplay:10.37,2013-11-06 06:55:00,
2013-11-06 02:00:00,39.2,30.6,30.39,East,90,0.0,0.0,71,0.00,CLR,,0.00,WeatherDisplay:10.37,2013-11-06 07:00:00,
2013-11-06 02:05:00,39.2,30.6,30.39,East,90,0.0,0.0,71,0.00,CLR,,0.00,WeatherDisplay:10.37,2013-11-06 07:05:00,
2013-11-06 02:10:00,39.4,30.8,30.39,East,90,0.0,0.0,71,0.00,CLR,,0.00,WeatherDisplay:10.37,2013-11-06 07:10:00,
2013-11-06 02:15:00,39.2,30.6,30.39,East,90,0.0,0.0,71,0.00,CLR,,0.00,WeatherDisplay:10.37,2013-11-06 07:15:00,
2013-11-06 02:20:00,39.2,30.6,30.39,East,90,0.0,0.0,71,0.00,CLR,,0.00,WeatherDisplay:10.37,2013-11-06 07:20:00,
2013-11-06 02:25:00,39.2,30.6,30.39,East,90,0.0,0.0,71,0.00,CLR,,0.00,WeatherDisplay:10.37,2013-11-06 07:25:00,
2013-11-06 02:30:00,39.4,30.8,30.39,East,90,0.0,1.0,71,0.00,CLR,,0.00,WeatherDisplay:10.37,2013-11-06 07:30:00,
2013-11-06 02:40:00,39.4,31.1,30.39,East,90,0.0,0.0,72,0.00,CLR,,0.00,WeatherDisplay:10.37,2013-11-06 07:40:00,
2013-11-06 02:45:00,39.4,31.1,30.39,East,90,0.0,0.0,72,0.00,CLR,,0.00,WeatherDisplay:10.37,2013-11-06 07:45:00,
2013-11-06 02:50:00,39.4,31.1,30.39,East,90,0.0,0.0,72,0.00,CLR,,0.00,WeatherDisplay:10.37,2013-11-06 07:50:00,
2013-11-06 02:55:00,39.4,31.1,30.39,East,90,0.0,0.0,72,0.00,CLR,,0.00,WeatherDisplay:10.37,2013-11-06 07:55:00,
2013-11-06 03:00:00,39.2,30.9,30.39,East,90,0.0,0.0,72,0.00,CLR,,0.00,WeatherDisplay:10.37,2013-11-06 08:00:00,
2013-11-06 03:05:00,39.2,30.9,30.39,East,90,0.0,0.0,72,0.00,CLR,,0.00,WeatherDisplay:10.37,2013-11-06 08:05:00,
2013-11-06 03:10:00,39.2,30.9,30.39,East,90,0.0,0.0,72,0.00,CLR,,0.00,WeatherDisplay:10.37,2013-11-06 08:10:00,
2013-11-06 03:15:00,39.0,30.8,30.39,East,90,0.0,0.0,72,0.00,CLR,,0.00,WeatherDisplay:10.37,2013-11-06 08:15:00,
2013-11-06 03:20:00,39.0,30.8,30.39,East,90,0.0,0.0,72,0.00,CLR,,0.00,WeatherDisplay:10.37,2013-11-06 08:20:00,
2013-11-06 03:30:00,38.8,30.6,30.36,East,90,0.0,0.0,72,0.00,CLR,,0.00,WeatherDisplay:10.37,2013-11-06 08:30:00,
2013-11-06 03:35:00,38.8,30.6,30.36,East,90,0.0,0.0,72,0.00,CLR,,0.00,WeatherDisplay:10.37,2013-11-06 08:35:00,
2013-11-06 03:40:00,38.8,30.6,30.36,East,90,0.0,0.0,72,0.00,CLR,,0.00,WeatherDisplay:10.37,2013-11-06 08:40:00,
2013-11-06 03:45:00,38.7,30.4,30.36,East,95,1.0,1.0,72,0.00,CLR,,0.00,WeatherDisplay:10.37,2013-11-06 08:45:00,
2013-11-06 03:50:00,38.6,30.3,30.36,ESE,121,0.0,0.0,72,0.00,CLR,,0.00,WeatherDisplay:10.37,2013-11-06 08:50:00,
2013-11-06 03:55:00,38.5,30.2,30.36,SE,135,0.0,0.0,72,0.00,CLR,,0.00,WeatherDisplay:10.37,2013-11-06 08:55:00,
2013-11-06 04:00:00,38.3,30.4,30.36,SE,135,0.0,0.0,73,0.00,CLR,,0.00,WeatherDisplay:10.37,2013-11-06 09:00:00,
2013-11-06 04:10:00,37.9,29.7,30.36,East,92,0.0,0.0,72,0.00,CLR,,0.00,WeatherDisplay:10.37,2013-11-06 09:10:00,
2013-11-06 04:15:00,37.8,29.5,30.36,East,90,0.0,0.0,72,0.00,CLR,,0.00,WeatherDisplay:10.37,2013-11-06 09:15:00,
2013-11-06 04:20:00,37.7,29.8,30.36,East,89,0.0,0.0,73,0.00,CLR,,0.00,WeatherDisplay:10.37,2013-11-06 09:20:00,
2013-11-06 04:25:00,37.6,29.7,30.36,East,83,0.0,0.0,73,0.00,CLR,,0.00,WeatherDisplay:10.37,2013-11-06 09:25:00,
2013-11-06 04:30:00,37.4,29.5,30.36,East,90,0.0,0.0,73,0.00,CLR,,0.00,WeatherDisplay:10.37,2013-11-06 09:30:00,
2013-11-06 04:35:00,37.4,29.5,30.36,East,90,0.0,0.0,73,0.00,CLR,,0.00,WeatherDisplay:10.37,2013-11-06 09:35:00,
2013-11-06 04:40:00,37.2,29.4,30.36,East,90,0.0,0.0,73,0.00,CLR,,0.00,WeatherDisplay:10.37,2013-11-06 09:40:00,
2013-11-06 04:45:00,37.1,29.2,30.36,East,90,0.0,0.0,73,0.00,CLR,,0.00,WeatherDisplay:10.37,2013-11-06 09:45:00,
2013-11-06 04:50:00,37.0,29.2,30.36,East,90,0.0,0.0,73,0.00,CLR,,0.00,WeatherDisplay:10.37,2013-11-06 09:50:00,
2013-11-06 04:55:00,36.9,29.0,30.36,East,90,0.0,0.0,73,0.00,CLR,,0.00,WeatherDisplay:10.37,2013-11-06 09:55:00,
2013-11-06 05:00:00,36.9,29.0,30.36,East,90,0.0,0.0,73,0.00,CLR,,0.00,WeatherDisplay:10.37,2013-11-06 10:00:00,
2013-11-06 05:05:00,36.7,28.8,30.36,East,90,0.0,0.0,73,0.00,CLR,,0.00,WeatherDisplay:10.37,2013-11-06 10:05:00,
2013-11-06 05:10:00,36.7,28.8,30.36,East,90,0.0,0.0,73,0.00,CLR,,0.00,WeatherDisplay:10.37,2013-11-06 10:10:00,
2013-11-06 05:15:00,36.5,28.7,30.36,East,90,0.0,0.0,73,0.00,CLR,,0.00,WeatherDisplay:10.37,2013-11-06 10:15:00,
2013-11-06 05:20:00,36.5,28.7,30.36,East,90,0.0,0.0,73,0.00,CLR,,0.00,WeatherDisplay:10.37,2013-11-06 10:20:00,
2013-11-06 05:25:00,36.5,28.7,30.36,East,90,0.0,0.0,73,0.00,CLR,,0.00,WeatherDisplay:10.37,2013-11-06 10:25:00,
2013-11-06 05:30:00,36.5,28.7,30.36,East,90,0.0,0.0,73,0.00,CLR,,0.00,WeatherDisplay:10.37,2013-11-06 10:30:00,
2013-11-06 05:35:00,36.5,28.7,30.36,East,90,0.0,0.0,73,0.00,CLR,,0.00,WeatherDisplay:10.37,2013-11-06 10:35:00,
2013-11-06 05:40:00,36.6,28.8,30.36,East,90,0.0,0.0,73,0.00,CLR,,0.00,WeatherDisplay:10.37,2013-11-06 10:40:00,
2013-11-06 05:45:00,36.7,29.2,30.36,East,90,0.0,0.0,74,0.00,CLR,,0.00,WeatherDisplay:10.37,2013-11-06 10:45:00,
2013-11-06 05:50:00,36.7,29.2,30.36,East,90,0.0,0.0,74,0.00,CLR,,0.00,WeatherDisplay:10.37,2013-11-06 10:50:00,
2013-11-06 05:55:00,36.9,29.3,30.36,East,90,0.0,0.0,74,0.00,CLR,,0.00,WeatherDisplay:10.37,2013-11-06 10:55:00,
2013-11-06 06:00:00,36.9,29.3,30.36,East,90,0.0,0.0,74,0.00,CLR,,0.00,WeatherDisplay:10.37,2013-11-06 11:00:00,
2013-11-06 06:05:00,36.9,29.3,30.36,East,90,0.0,0.0,74,0.00,CLR,,0.00,WeatherDisplay:10.37,2013-11-06 11:05:00,
2013-11-06 06:10:00,37.0,29.5,30.36,East,90,0.0,0.0,74,0.00,CLR,,0.00,WeatherDisplay:10.37,2013-11-06 11:10:00,
2013-11-06 06:15:00,37.0,29.5,30.36,East,90,0.0,0.0,74,0.00,CLR,,0.00,WeatherDisplay:10.37,2013-11-06 11:15:00,
2013-11-06 06:20:00,37.0,29.5,30.36,East,90,0.0,0.0,74,0.00,CLR,,0.00,WeatherDisplay:10.37,2013-11-06 11:20:00,
2013-11-06 06:25:00,37.0,29.5,30.36,East,98,0.0,0.0,74,0.00,CLR,,0.00,WeatherDisplay:10.37,2013-11-06 11:25:00,
2013-11-06 06:30:00,37.0,29.8,30.33,ESE,109,0.0,0.0,75,0.00,CLR,,0.00,WeatherDisplay:10.37,2013-11-06 11:30:00,
2013-11-06 06:35:00,37.0,29.8,30.33,ESE,112,0.0,0.0,75,0.00,CLR,,0.00,WeatherDisplay:10.37,2013-11-06 11:35:00,
2013-11-06 06:40:00,37.0,29.8,30.33,ESE,112,0.0,0.0,75,0.00,CLR,,0.00,WeatherDisplay:10.37,2013-11-06 11:40:00,
2013-11-06 06:45:00,37.0,29.8,30.33,ESE,112,0.0,0.0,75,0.00,CLR,,0.00,WeatherDisplay:10.37,2013-11-06 11:45:00,
2013-11-06 06:50:00,37.1,29.9,30.33,ESE,112,0.0,0.0,75,0.00,CLR,,0.00,WeatherDisplay:10.37,2013-11-06 11:50:00,
2013-11-06 06:55:00,37.2,30.0,30.33,ESE,112,0.0,0.0,75,0.00,CLR,,0.00,WeatherDisplay:10.37,2013-11-06 11:55:00,
2013-11-06 07:05:00,37.4,30.2,30.33,ESE,112,0.0,0.0,75,0.00,CLR,,0.00,WeatherDisplay:10.37,2013-11-06 12:05:00,
2013-11-06 07:10:00,37.4,30.2,30.33,ESE,112,0.0,0.0,75,0.00,CLR,,0.00,WeatherDisplay:10.37,2013-11-06 12:10:00,
2013-11-06 07:15:00,37.4,30.2,30.33,ESE,112,0.0,0.0,75,0.00,CLR,,0.00,WeatherDisplay:10.37,2013-11-06 12:15:00,
2013-11-06 07:20:00,37.4,30.2,30.33,ESE,112,0.0,0.0,75,0.00,CLR,,0.00,WeatherDisplay:10.37,2013-11-06 12:20:00,
2013-11-06 07:25:00,37.4,30.2,30.33,ESE,112,0.0,0.0,75,0.00,CLR,,0.00,WeatherDisplay:10.37,2013-11-06 12:25:00,
2013-11-06 07:30:00,37.4,30.2,30.33,ESE,112,0.0,0.0,75,0.00,CLR,,0.00,WeatherDisplay:10.37,2013-11-06 12:30:00,
2013-11-06 07:35:00,37.6,30.4,30.33,ESE,112,0.0,0.0,75,0.00,CLR,,0.00,WeatherDisplay:10.37,2013-11-06 12:35:00,
2013-11-06 07:40:00,37.7,30.5,30.33,ESE,112,0.0,0.0,75,0.00,CLR,,0.00,WeatherDisplay:10.37,2013-11-06 12:40:00,
2013-11-06 07:45:00,37.9,30.7,30.33,ESE,112,0.0,0.0,75,0.00,CLR,,0.00,WeatherDisplay:10.37,2013-11-06 12:45:00,
2013-11-06 07:50:00,38.0,30.7,30.33,ESE,112,0.0,0.0,75,0.00,CLR,,0.00,WeatherDisplay:10.37,2013-11-06 12:50:00,
2013-11-06 07:55:00,38.1,30.9,30.33,ESE,112,0.0,0.0,75,0.00,CLR,,0.00,WeatherDisplay:10.37,2013-11-06 12:55:00,
2013-11-06 08:00:00,38.5,31.6,30.33,ESE,112,0.0,0.0,76,0.00,CLR,,0.00,WeatherDisplay:10.37,2013-11-06 13:00:00,
2013-11-06 08:05:00,38.8,31.9,30.33,SE,128,0.0,0.0,76,0.00,CLR,,0.00,WeatherDisplay:10.37,2013-11-06 13:05:00,
2013-11-06 08:10:00,39.1,32.2,30.33,SSE,151,0.0,0.0,76,0.00,CLR,,0.00,WeatherDisplay:10.37,2013-11-06 13:10:00,
2013-11-06 08:15:00,39.4,32.5,30.33,SSE,161,0.0,0.0,76,0.00,CLR,,0.00,WeatherDisplay:10.37,2013-11-06 13:15:00,
2013-11-06 08:20:00,39.7,32.8,30.33,South,173,0.0,0.0,76,0.00,CLR,,0.00,WeatherDisplay:10.37,2013-11-06 13:20:00,
2013-11-06 08:25:00,40.1,33.5,30.33,SW,221,0.0,0.0,77,0.00,CLR,,0.00,WeatherDisplay:10.37,2013-11-06 13:25:00,
2013-11-06 08:30:00,40.3,33.6,30.33,SSW,209,0.0,0.0,77,0.00,CLR,,0.00,WeatherDisplay:10.37,2013-11-06 13:30:00,
2013-11-06 08:35:00,40.5,33.8,30.33,SE,144,0.0,0.0,77,0.00,CLR,,0.00,WeatherDisplay:10.37,2013-11-06 13:35:00,
2013-11-06 08:40:00,40.6,34.0,30.33,SE,135,0.0,0.0,77,0.00,CLR,,0.00,WeatherDisplay:10.37,2013-11-06 13:40:00,
2013-11-06 08:45:00,41.2,34.2,30.33,SE,140,0.0,1.0,76,0.00,CLR,,0.00,WeatherDisplay:10.37,2013-11-06 13:45:00,
2013-11-06 08:50:00,41.7,35.0,30.33,ESE,121,1.0,1.0,77,0.00,CLR,,0.00,WeatherDisplay:10.37,2013-11-06 13:50:00,
2013-11-06 08:55:00,42.2,35.5,30.33,SSW,192,1.0,1.0,77,0.00,CLR,,0.00,WeatherDisplay:10.37,2013-11-06 13:55:00,
2013-11-06 09:00:00,42.7,36.0,30.30,SSW,199,0.0,1.0,77,0.00,CLR,,0.00,WeatherDisplay:10.37,2013-11-06 14:00:00,
2013-11-06 09:05:00,43.5,37.1,30.30,SSW,205,1.0,5.0,78,0.00,CLR,,0.00,WeatherDisplay:10.37,2013-11-06 14:05:00,
2013-11-06 09:10:00,44.4,38.3,30.30,SW,225,1.0,3.0,79,0.00,CLR,,0.00,WeatherDisplay:10.37,2013-11-06 14:10:00,
2013-11-06 09:15:00,45.1,39.0,30.30,WSW,245,0.0,3.0,79,0.00,CLR,,0.00,WeatherDisplay:10.37,2013-11-06 14:15:00,
2013-11-06 09:20:00,46.0,39.8,30.30,West,271,2.0,5.0,79,0.00,CLR,,0.00,WeatherDisplay:10.37,2013-11-06 14:20:00,
2013-11-06 09:25:00,46.7,40.5,30.30,West,269,1.0,4.0,79,0.00,CLR,,0.00,WeatherDisplay:10.37,2013-11-06 14:25:00,
2013-11-06 09:30:00,47.4,41.2,30.30,WSW,254,2.0,3.0,79,0.00,CLR,,0.00,WeatherDisplay:10.37,2013-11-06 14:30:00,
2013-11-06 09:35:00,47.8,41.6,30.30,SSW,194,2.0,4.0,79,0.00,CLR,,0.00,WeatherDisplay:10.37,2013-11-06 14:35:00,
2013-11-06 09:40:00,48.6,42.3,30.30,South,190,6.0,6.0,79,0.00,CLR,,0.00,WeatherDisplay:10.37,2013-11-06 14:40:00,
2013-11-06 09:45:00,49.1,42.9,30.30,WSW,256,2.0,6.0,79,0.00,CLR,,0.00,WeatherDisplay:10.37,2013-11-06 14:45:00,
2013-11-06 09:50:00,49.6,43.0,30.30,West,273,2.0,6.0,78,0.00,CLR,,0.00,WeatherDisplay:10.37,2013-11-06 14:50:00,
2013-11-06 10:00:00,50.7,44.1,30.30,WSW,251,1.0,7.0,78,0.00,CLR,,0.00,WeatherDisplay:10.37,2013-11-06 15:00:00,
2013-11-06 10:05:00,51.6,44.6,30.30,SE,131,3.0,5.0,77,0.00,CLR,,0.00,WeatherDisplay:10.37,2013-11-06 15:05:00,
2013-11-06 10:10:00,52.3,45.0,30.30,SSW,210,3.0,5.0,76,0.00,CLR,,0.00,WeatherDisplay:10.37,2013-11-06 15:10:00,
2013-11-06 10:20:00,53.0,45.3,30.27,SW,236,1.0,5.0,75,0.00,CLR,,0.00,WeatherDisplay:10.37,2013-11-06 15:20:00,
2013-11-06 10:25:00,53.1,45.1,30.27,West,260,3.0,6.0,74,0.00,CLR,,0.00,WeatherDisplay:10.37,2013-11-06 15:25:00,
2013-11-06 10:30:00,53.2,45.2,30.27,WSW,258,7.0,7.0,74,0.00,CLR,,0.00,WeatherDisplay:10.37,2013-11-06 15:30:00,
2013-11-06 10:40:00,54.3,45.8,30.27,WSW,244,2.0,3.0,73,0.00,CLR,,0.00,WeatherDisplay:10.37,2013-11-06 15:40:00,
2013-11-06 10:45:00,54.7,46.2,30.27,West,275,3.0,4.0,73,0.00,CLR,,0.00,WeatherDisplay:10.37,2013-11-06 15:45:00,
2013-11-06 10:50:00,55.2,46.3,30.27,SW,217,3.0,9.0,72,0.00,CLR,,0.00,WeatherDisplay:10.37,2013-11-06 15:50:00,
2013-11-06 10:55:00,55.0,46.2,30.27,SW,220,3.0,6.0,72,0.00,CLR,,0.00,WeatherDisplay:10.37,2013-11-06 15:55:00,
2013-11-06 11:00:00,55.2,46.3,30.27,West,267,2.0,5.0,72,0.00,CLR,,0.00,WeatherDisplay:10.37,2013-11-06 16:00:00,
2013-11-06 11:05:00,55.2,46.0,30.27,West,280,5.0,7.0,71,0.00,CLR,,0.00,WeatherDisplay:10.37,2013-11-06 16:05:00,
2013-11-06 11:10:00,55.4,45.8,30.27,West,268,3.0,6.0,70,0.00,CLR,,0.00,WeatherDisplay:10.37,2013-11-06 16:10:00,
2013-11-06 11:15:00,55.9,46.3,30.27,WSW,256,0.0,9.0,70,0.00,CLR,,0.00,WeatherDisplay:10.37,2013-11-06 16:15:00,
2013-11-06 11:20:00,56.3,46.6,30.27,SW,218,3.0,3.0,70,0.00,CLR,,0.00,WeatherDisplay:10.37,2013-11-06 16:20:00,
2013-11-06 11:25:00,56.3,46.3,30.27,SW,217,2.0,6.0,69,0.00,CLR,,0.00,WeatherDisplay:10.37,2013-11-06 16:25:00,
2013-11-06 11:30:00,56.5,46.4,30.27,WSW,240,2.0,2.0,69,0.00,CLR,,0.00,WeatherDisplay:10.37,2013-11-06 16:30:00,
2013-11-06 11:35:00,56.5,46.4,30.27,SSW,213,1.0,6.0,69,0.00,CLR,,0.00,WeatherDisplay:10.37,2013-11-06 16:35:00,
2013-11-06 11:40:00,56.7,46.6,30.27,SW,236,2.0,4.0,69,0.00,CLR,,0.00,WeatherDisplay:10.37,2013-11-06 16:40:00,
2013-11-06 11:45:00,56.7,46.6,30.27,SW,229,7.0,7.0,69,0.00,CLR,,0.00,WeatherDisplay:10.37,2013-11-06 16:45:00,
2013-11-06 11:50:00,56.6,46.2,30.27,WSW,242,5.0,9.0,68,0.00,CLR,,0.00,WeatherDisplay:10.37,2013-11-06 16:50:00,
2013-11-06 11:55:00,56.7,46.2,30.27,West,266,2.0,9.0,68,0.00,CLR,,0.00,WeatherDisplay:10.37,2013-11-06 16:55:00,
2013-11-06 12:00:00,57.0,46.6,30.24,WNW,282,3.0,6.0,68,0.00,CLR,,0.00,WeatherDisplay:10.37,2013-11-06 17:00:00,
2013-11-06 12:05:00,57.0,46.6,30.24,WSW,253,5.0,5.0,68,0.00,CLR,,0.00,WeatherDisplay:10.37,2013-11-06 17:05:00,
2013-11-06 12:10:00,57.0,46.6,30.24,West,270,5.0,7.0,68,0.00,CLR,,0.00,WeatherDisplay:10.37,2013-11-06 17:10:00,
2013-11-06 12:15:00,57.4,46.5,30.24,West,281,3.0,7.0,67,0.00,CLR,,0.00,WeatherDisplay:10.37,2013-11-06 17:15:00,
2013-11-06 12:20:00,57.5,46.2,30.24,WNW,294,5.0,8.0,66,0.00,CLR,,0.00,WeatherDisplay:10.37,2013-11-06 17:20:00,
2013-11-06 12:25:00,57.6,46.3,30.24,WNW,289,3.0,5.0,66,0.00,CLR,,0.00,WeatherDisplay:10.37,2013-11-06 17:25:00,
2013-11-06 12:30:00,57.7,46.5,30.24,WSW,258,6.0,6.0,66,0.00,CLR,,0.00,WeatherDisplay:10.37,2013-11-06 17:30:00,
2013-11-06 12:35:00,57.7,46.0,30.24,West,264,2.0,4.0,65,0.00,CLR,,0.00,WeatherDisplay:10.37,2013-11-06 17:35:00,
2013-11-06 12:40:00,57.7,46.0,30.21,WNW,284,6.0,6.0,65,0.00,CLR,,0.00,WeatherDisplay:10.37,2013-11-06 17:40:00,
2013-11-06 12:45:00,57.6,45.9,30.21,West,278,2.0,6.0,65,0.00,CLR,,0.00,WeatherDisplay:10.37,2013-11-06 17:45:00,
2013-11-06 12:50:00,57.9,46.6,30.21,West,265,6.0,7.0,66,0.00,CLR,,0.00,WeatherDisplay:10.37,2013-11-06 17:50:00,
2013-11-06 12:55:00,58.1,46.4,30.21,West,263,5.0,7.0,65,0.00,CLR,,0.00,WeatherDisplay:10.37,2013-11-06 17:55:00,
2013-11-06 13:00:00,58.3,46.6,30.18,SW,230,0.0,4.0,65,0.00,CLR,,0.00,WeatherDisplay:10.37,2013-11-06 18:00:00,
2013-11-06 13:05:00,58.1,46.0,30.18,SW,228,3.0,11.0,64,0.00,CLR,,0.00,WeatherDisplay:10.37,2013-11-06 18:05:00,
2013-11-06 13:10:00,58.3,46.2,30.18,SW,228,0.0,4.0,64,0.00,CLR,,0.00,WeatherDisplay:10.37,2013-11-06 18:10:00,
2013-11-06 13:15:00,58.5,46.3,30.18,SW,218,3.0,8.0,64,0.00,CLR,,0.00,WeatherDisplay:10.37,2013-11-06 18:15:00,
2013-11-06 13:20:00,58.6,46.1,30.18,SW,234,2.0,8.0,63,0.00,CLR,,0.00,WeatherDisplay:10.37,2013-11-06 18:20:00,
2013-11-06 13:25:00,59.0,46.4,30.18,WSW,237,5.0,6.0,63,0.00,CLR,,0.00,WeatherDisplay:10.37,2013-11-06 18:25:00,
2013-11-06 13:30:00,59.2,46.1,30.18,SW,224,6.0,7.0,62,0.00,CLR,,0.00,WeatherDisplay:10.37,2013-11-06 18:30:00,
2013-11-06 13:35:00,59.2,46.2,30.18,SW,232,2.0,7.0,62,0.00,CLR,,0.00,WeatherDisplay:10.37,2013-11-06 18:35:00,
2013-11-06 13:40:00,59.2,46.2,30.18,WSW,254,1.0,7.0,62,0.00,CLR,,0.00,WeatherDisplay:10.37,2013-11-06 18:40:00,
2013-11-06 13:45:00,59.4,46.8,30.18,WSW,252,1.0,9.0,63,0.00,CLR,,0.00,WeatherDisplay:10.37,2013-11-06 18:45:00,
2013-11-06 13:50:00,59.2,46.2,30.18,WSW,250,3.0,5.0,62,0.00,CLR,,0.00,WeatherDisplay:10.37,2013-11-06 18:50:00,
2013-11-06 13:55:00,58.8,46.2,30.18,SW,219,1.0,5.0,63,0.00,CLR,,0.00,WeatherDisplay:10.37,2013-11-06 18:55:00,
2013-11-06 14:00:00,59.0,46.4,30.18,West,275,1.0,3.0,63,0.00,CLR,,0.00,WeatherDisplay:10.37,2013-11-06 19:00:00,
2013-11-06 14:05:00,59.2,46.6,30.18,WSW,248,3.0,8.0,63,0.00,CLR,,0.00,WeatherDisplay:10.37,2013-11-06 19:05:00,
2013-11-06 14:10:00,59.4,46.8,30.18,SW,228,2.0,5.0,63,0.00,CLR,,0.00,WeatherDisplay:10.37,2013-11-06 19:10:00,
2013-11-06 14:15:00,59.4,46.3,30.18,WSW,257,3.0,6.0,62,0.00,CLR,,0.00,WeatherDisplay:10.37,2013-11-06 19:15:00,
2013-11-06 14:20:00,59.2,46.2,30.18,SW,216,1.0,5.0,62,0.00,CLR,,0.00,WeatherDisplay:10.37,2013-11-06 19:20:00,
2013-11-06 14:30:00,59.5,46.5,30.18,WSW,240,3.0,6.0,62,0.00,CLR,,0.00,WeatherDisplay:10.37,2013-11-06 19:30:00,
2013-11-06 14:35:00,59.4,46.3,30.18,SW,225,2.0,6.0,62,0.00,CLR,,0.00,WeatherDisplay:10.37,2013-11-06 19:35:00,
2013-11-06 14:40:00,59.4,46.4,30.18,SW,216,2.0,5.0,62,0.00,CLR,,0.00,WeatherDisplay:10.37,2013-11-06 19:40:00,
2013-11-06 14:45:00,59.5,46.5,30.15,SW,235,1.0,7.0,62,0.00,CLR,,0.00,WeatherDisplay:10.37,2013-11-06 19:45:00,
2013-11-06 14:50:00,59.5,46.5,30.15,SW,235,2.0,6.0,62,0.00,CLR,,0.00,WeatherDisplay:10.37,2013-11-06 19:50:00,
2013-11-06 14:55:00,59.7,47.1,30.15,WSW,246,1.0,4.0,63,0.00,CLR,,0.00,WeatherDisplay:10.37,2013-11-06 19:55:00,
2013-11-06 15:00:00,59.5,46.9,30.15,WSW,245,3.0,5.0,63,0.00,CLR,,0.00,WeatherDisplay:10.37,2013-11-06 20:00:00,
2013-11-06 15:05:00,59.4,46.8,30.15,WSW,245,2.0,5.0,63,0.00,CLR,,0.00,WeatherDisplay:10.37,2013-11-06 20:05:00,
2013-11-06 15:10:00,59.4,46.8,30.15,West,260,1.0,2.0,63,0.00,CLR,,0.00,WeatherDisplay:10.37,2013-11-06 20:10:00,
2013-11-06 15:15:00,59.2,46.6,30.15,WSW,250,5.0,7.0,63,0.00,CLR,,0.00,WeatherDisplay:10.37,2013-11-06 20:15:00,
2013-11-06 15:20:00,59.1,46.5,30.15,WSW,241,5.0,6.0,63,0.00,CLR,,0.00,WeatherDisplay:10.37,2013-11-06 20:20:00,
2013-11-06 15:25:00,59.2,47.0,30.15,West,262,3.0,7.0,64,0.00,CLR,,0.00,WeatherDisplay:10.37,2013-11-06 20:25:00,
2013-11-06 15:30:00,59.2,47.0,30.15,WSW,251,1.0,5.0,64,0.00,CLR,,0.00,WeatherDisplay:10.37,2013-11-06 20:30:00,
2013-11-06 15:40:00,59.0,46.8,30.15,West,278,2.0,3.0,64,0.00,CLR,,0.00,WeatherDisplay:10.37,2013-11-06 20:40:00,
2013-11-06 15:45:00,58.9,47.1,30.15,West,276,1.0,5.0,65,0.00,CLR,,0.00,WeatherDisplay:10.37,2013-11-06 20:45:00,
2013-11-06 15:50:00,58.8,47.1,30.15,WSW,249,3.0,3.0,65,0.00,CLR,,0.00,WeatherDisplay:10.37,2013-11-06 20:50:00,
2013-11-06 15:55:00,58.6,46.9,30.15,WSW,243,6.0,6.0,65,0.00,CLR,,0.00,WeatherDisplay:10.37,2013-11-06 20:55:00,
2013-11-06 16:00:00,58.5,46.7,30.15,West,259,0.0,7.0,65,0.00,CLR,,0.00,WeatherDisplay:10.37,2013-11-06 21:00:00,
2013-11-06 16:05:00,58.3,46.6,30.15,SW,234,2.0,6.0,65,0.00,CLR,,0.00,WeatherDisplay:10.37,2013-11-06 21:05:00,
2013-11-06 16:10:00,58.1,46.4,30.15,SSW,198,1.0,3.0,65,0.00,CLR,,0.00,WeatherDisplay:10.37,2013-11-06 21:10:00,
2013-11-06 16:15:00,58.1,46.8,30.15,SW,219,1.0,2.0,66,0.00,CLR,,0.00,WeatherDisplay:10.37,2013-11-06 21:15:00,
2013-11-06 16:20:00,57.9,46.6,30.15,WSW,239,1.0,2.0,66,0.00,CLR,,0.00,WeatherDisplay:10.37,2013-11-06 21:20:00,
2013-11-06 16:25:00,57.9,46.6,30.15,WSW,249,0.0,2.0,66,0.00,CLR,,0.00,WeatherDisplay:10.37,2013-11-06 21:25:00,
2013-11-06 16:30:00,57.7,46.5,30.15,West,280,2.0,5.0,66,0.00,CLR,,0.00,WeatherDisplay:10.37,2013-11-06 21:30:00,
2013-11-06 16:35:00,57.7,46.5,30.15,WSW,251,1.0,3.0,66,0.00,CLR,,0.00,WeatherDisplay:10.37,2013-11-06 21:35:00,
2013-11-06 16:40:00,57.6,46.7,30.15,WSW,249,3.0,3.0,67,0.00,CLR,,0.00,WeatherDisplay:10.37,2013-11-06 21:40:00,
2013-11-06 16:45:00,57.4,46.5,30.15,SW,227,2.0,5.0,67,0.00,CLR,,0.00,WeatherDisplay:10.37,2013-11-06 21:45:00,
2013-11-06 16:50:00,57.3,46.4,30.15,SSW,212,1.0,3.0,67,0.00,CLR,,0.00,WeatherDisplay:10.37,2013-11-06 21:50:00,
2013-11-06 16:55:00,57.2,46.7,30.15,WSW,246,6.0,6.0,68,0.00,CLR,,0.00,WeatherDisplay:10.37,2013-11-06 21:55:00,
2013-11-06 17:00:00,57.0,46.6,30.15,WNW,283,2.0,6.0,68,0.00,CLR,,0.00,WeatherDisplay:10.37,2013-11-06 22:00:00,
2013-11-06 17:05:00,56.8,46.8,30.15,WSW,252,0.0,2.0,69,0.00,CLR,,0.00,WeatherDisplay:10.37,2013-11-06 22:05:00,
2013-11-06 17:10:00,56.8,46.8,30.15,South,189,0.0,5.0,69,0.00,CLR,,0.00,WeatherDisplay:10.37,2013-11-06 22:10:00,
2013-11-06 17:15:00,56.7,46.7,30.15,SSW,198,2.0,6.0,69,0.00,CLR,,0.00,WeatherDisplay:10.37,2013-11-06 22:15:00,
2013-11-06 17:20:00,56.7,46.6,30.15,WSW,242,0.0,7.0,69,0.00,CLR,,0.00,WeatherDisplay:10.37,2013-11-06 22:20:00,
2013-11-06 17:25:00,56.7,47.0,30.15,WSW,254,2.0,3.0,70,0.00,CLR,,0.00,WeatherDisplay:10.37,2013-11-06 22:25:00,
2013-11-06 17:30:00,56.7,47.0,30.15,SSW,209,2.0,5.0,70,0.00,CLR,,0.00,WeatherDisplay:10.37,2013-11-06 22:30:00,
2013-11-06 17:35:00,56.5,46.8,30.15,SSW,207,0.0,1.0,70,0.00,CLR,,0.00,WeatherDisplay:10.37,2013-11-06 22:35:00,
2013-11-06 17:40:00,56.3,46.6,30.15,SSW,198,1.0,1.0,70,0.00,CLR,,0.00,WeatherDisplay:10.37,2013-11-06 22:40:00,
2013-11-06 17:45:00,56.3,47.0,30.15,SSW,213,0.0,6.0,71,0.00,CLR,,0.00,WeatherDisplay:10.37,2013-11-06 22:45:00,
2013-11-06 17:50:00,56.2,47.0,30.15,WSW,251,6.0,6.0,71,0.00,CLR,,0.00,WeatherDisplay:10.37,2013-11-06 22:50:00,
2013-11-06 17:55:00,56.1,46.8,30.15,ENE,70,1.0,6.0,71,0.00,CLR,,0.00,WeatherDisplay:10.37,2013-11-06 22:55:00,
2013-11-06 18:00:00,56.1,46.8,30.15,NW,325,1.0,2.0,71,0.00,CLR,,0.00,WeatherDisplay:10.37,2013-11-06 23:00:00,
2013-11-06 18:10:00,55.9,46.7,30.15,SW,231,1.0,2.0,71,0.00,CLR,,0.00,WeatherDisplay:10.37,2013-11-06 23:10:00,
2013-11-06 18:20:00,55.4,46.5,30.12,SSW,207,1.0,2.0,72,0.00,CLR,,0.00,WeatherDisplay:10.37,2013-11-06 23:20:00,
2013-11-06 18:25:00,55.4,46.5,30.12,SW,216,1.0,2.0,72,0.00,CLR,,0.00,WeatherDisplay:10.37,2013-11-06 23:25:00,
2013-11-06 18:30:00,54.9,46.0,30.12,SSW,194,0.0,1.0,72,0.00,CLR,,0.00,WeatherDisplay:10.37,2013-11-06 23:30:00,
2013-11-06 18:35:00,54.6,45.8,30.12,South,169,0.0,1.0,72,0.00,CLR,,0.00,WeatherDisplay:10.37,2013-11-06 23:35:00,
2013-11-06 18:40:00,54.3,45.5,30.12,SE,144,0.0,1.0,72,0.00,CLR,,0.00,WeatherDisplay:10.37,2013-11-06 23:40:00,
2013-11-06 18:45:00,54.0,45.1,30.12,SE,131,0.0,1.0,72,0.00,CLR,,0.00,WeatherDisplay:10.37,2013-11-06 23:45:00,
2013-11-06 18:50:00,53.6,45.2,30.12,ESE,119,0.0,0.0,73,0.00,CLR,,0.00,WeatherDisplay:10.37,2013-11-06 23:50:00,
2013-11-06 18:55:00,53.4,45.0,30.12,ESE,112,0.0,0.0,73,0.00,CLR,,0.00,WeatherDisplay:10.37,2013-11-06 23:55:00,
2013-11-06 19:00:00,53.1,44.6,30.12,ESE,112,0.0,0.0,73,0.00,CLR,,0.00,WeatherDisplay:10.37,2013-11-07 00:00:00,
2013-11-06 19:05:00,53.1,44.6,30.12,ESE,112,0.0,0.0,73,0.00,CLR,,0.00,WeatherDisplay:10.37,2013-11-07 00:05:00,
2013-11-06 19:10:00,52.9,44.5,30.12,ESE,118,0.0,0.0,73,0.00,CLR,,0.00,WeatherDisplay:10.37,2013-11-07 00:10:00,
2013-11-06 19:15:00,52.7,44.3,30.09,ESE,121,0.0,1.0,73,0.00,CLR,,0.00,WeatherDisplay:10.37,2013-11-07 00:15:00,
2013-11-06 19:20:00,52.7,44.6,30.09,SE,125,0.0,0.0,74,0.00,CLR,,0.00,WeatherDisplay:10.37,2013-11-07 00:20:00,
2013-11-06 19:25:00,52.6,44.5,30.09,ESE,121,0.0,0.0,74,0.00,CLR,,0.00,WeatherDisplay:10.37,2013-11-07 00:25:00,
2013-11-06 19:30:00,52.4,44.4,30.09,ESE,119,0.0,0.0,74,0.00,CLR,,0.00,WeatherDisplay:10.37,2013-11-07 00:30:00,
2013-11-06 19:35:00,52.2,44.1,30.09,SE,134,0.0,0.0,74,0.00,CLR,,0.00,WeatherDisplay:10.37,2013-11-07 00:35:00,
2013-11-06 19:40:00,52.0,43.9,30.09,ESE,113,0.0,2.0,74,0.00,CLR,,0.00,WeatherDisplay:10.37,2013-11-07 00:40:00,
2013-11-06 19:45:00,51.8,43.8,30.09,East,82,0.0,0.0,74,0.00,CLR,,0.00,WeatherDisplay:10.37,2013-11-07 00:45:00,
2013-11-06 19:50:00,51.6,43.6,30.09,East,96,0.0,0.0,74,0.00,CLR,,0.00,WeatherDisplay:10.37,2013-11-07 00:50:00,
2013-11-06 19:55:00,51.6,43.6,30.09,ESE,123,0.0,0.0,74,0.00,CLR,,0.00,WeatherDisplay:10.37,2013-11-07 00:55:00,
2013-11-06 20:00:00,51.4,43.4,30.06,SSW,210,0.0,2.0,74,0.00,CLR,,0.00,WeatherDisplay:10.37,2013-11-07 01:00:00,
2013-11-06 20:05:00,51.3,43.3,30.06,SW,218,0.0,0.0,74,0.00,CLR,,0.00,WeatherDisplay:10.37,2013-11-07 01:05:00,
2013-11-06 20:10:00,51.1,43.1,30.06,SSE,148,0.0,0.0,74,0.00,CLR,,0.00,WeatherDisplay:10.37,2013-11-07 01:10:00,
2013-11-06 20:15:00,51.1,43.1,30.06,SSE,161,0.0,2.0,74,0.00,CLR,,0.00,WeatherDisplay:10.37,2013-11-07 01:15:00,
2013-11-06 20:20:00,50.9,42.9,30.06,WSW,257,0.0,0.0,74,0.00,CLR,,0.00,WeatherDisplay:10.37,2013-11-07 01:20:00,
2013-11-06 20:30:00,50.7,43.1,30.06,ESE,117,0.0,1.0,75,0.00,CLR,,0.00,WeatherDisplay:10.37,2013-11-07 01:30:00,
2013-11-06 20:35:00,50.7,43.1,30.06,ESE,112,0.0,0.0,75,0.00,CLR,,0.00,WeatherDisplay:10.37,2013-11-07 01:35:00,
2013-11-06 20:40:00,50.5,42.9,30.06,ESE,119,0.0,0.0,75,0.00,CLR,,0.00,WeatherDisplay:10.37,2013-11-07 01:40:00,
2013-11-06 20:50:00,50.5,42.9,30.06,SE,127,0.0,0.0,75,0.00,CLR,,0.00,WeatherDisplay:10.37,2013-11-07 01:50:00,
2013-11-06 21:00:00,50.5,42.9,30.06,SE,136,0.0,2.0,75,0.00,CLR,,0.00,WeatherDisplay:10.37,2013-11-07 02:00:00,
2013-11-06 21:05:00,50.5,42.9,30.06,ESE,116,0.0,0.0,75,0.00,CLR,,0.00,WeatherDisplay:10.37,2013-11-07 02:05:00,
2013-11-06 21:10:00,50.5,42.9,30.06,SE,125,0.0,0.0,75,0.00,CLR,,0.00,WeatherDisplay:10.37,2013-11-07 02:10:00,
2013-11-06 21:15:00,50.5,42.9,30.06,ESE,119,0.0,0.0,75,0.00,CLR,,0.00,WeatherDisplay:10.37,2013-11-07 02:15:00,
2013-11-06 21:20:00,50.5,43.3,30.06,East,100,0.0,0.0,76,0.00,CLR,,0.00,WeatherDisplay:10.37,2013-11-07 02:20:00,
2013-11-06 21:25:00,50.5,43.3,30.06,East,100,0.0,0.0,76,0.00,CLR,,0.00,WeatherDisplay:10.37,2013-11-07 02:25:00,
2013-11-06 21:30:00,50.5,43.2,30.06,SE,129,0.0,0.0,76,0.00,CLR,,0.00,WeatherDisplay:10.37,2013-11-07 02:30:00,
2013-11-06 21:35:00,50.4,43.1,30.06,SSE,153,0.0,0.0,76,0.00,CLR,,0.00,WeatherDisplay:10.37,2013-11-07 02:35:00,
2013-11-06 21:40:00,50.2,42.9,30.06,SE,143,0.0,0.0,76,0.00,CLR,,0.00,WeatherDisplay:10.37,2013-11-07 02:40:00,
2013-11-06 21:45:00,50.2,42.9,30.06,SE,135,0.0,0.0,76,0.00,CLR,,0.00,WeatherDisplay:10.37,2013-11-07 02:45:00,
2013-11-06 21:50:00,50.3,43.1,30.06,ESE,122,0.0,0.0,76,0.00,CLR,,0.00,WeatherDisplay:10.37,2013-11-07 02:50:00,
2013-11-06 21:55:00,50.4,43.1,30.06,ESE,115,0.0,0.0,76,0.00,CLR,,0.00,WeatherDisplay:10.37,2013-11-07 02:55:00,
2013-11-06 22:00:00,50.4,43.1,30.05,ESE,106,0.0,0.0,76,0.00,CLR,,0.00,WeatherDisplay:10.37,2013-11-07 03:00:00,
2013-11-06 22:05:00,50.4,43.1,30.03,WNW,303,0.0,0.0,76,0.00,CLR,,0.00,WeatherDisplay:10.37,2013-11-07 03:05:00,
2013-11-06 22:10:00,50.2,42.9,30.03,West,269,0.0,0.0,76,0.00,CLR,,0.00,WeatherDisplay:10.37,2013-11-07 03:10:00,
2013-11-06 22:15:00,50.2,42.9,30.03,WSW,247,0.0,1.0,76,0.00,CLR,,0.00,WeatherDisplay:10.37,2013-11-07 03:15:00,
2013-11-06 22:20:00,50.2,42.9,30.03,SW,231,0.0,0.0,76,0.00,CLR,,0.00,WeatherDisplay:10.37,2013-11-07 03:20:00,
2013-11-06 22:25:00,50.2,43.2,30.03,South,186,0.0,0.0,77,0.00,CLR,,0.00,WeatherDisplay:10.37,2013-11-07 03:25:00,
2013-11-06 22:30:00,50.4,43.4,30.03,South,174,1.0,1.0,77,0.00,CLR,,0.00,WeatherDisplay:10.37,2013-11-07 03:30:00,
2013-11-06 22:40:00,50.4,43.4,30.03,WSW,248,1.0,2.0,77,0.00,CLR,,0.00,WeatherDisplay:10.37,2013-11-07 03:40:00,
2013-11-06 22:45:00,50.4,43.4,30.03,WSW,237,0.0,1.0,77,0.00,CLR,,0.00,WeatherDisplay:10.37,2013-11-07 03:45:00,
2013-11-06 22:50:00,50.4,43.4,30.03,WSW,243,0.0,0.0,77,0.00,CLR,,0.00,WeatherDisplay:10.37,2013-11-07 03:50:00,
2013-11-06 22:55:00,50.4,43.8,30.03,WSW,252,1.0,2.0,78,0.00,CLR,,0.00,WeatherDisplay:10.37,2013-11-07 03:55:00,
2013-11-06 23:00:00,50.4,43.8,30.03,SW,230,0.0,3.0,78,0.00,CLR,,0.00,WeatherDisplay:10.37,2013-11-07 04:00:00,
2013-11-06 23:10:00,50.4,43.8,30.03,SW,222,0.0,0.0,78,0.00,CLR,,0.00,WeatherDisplay:10.37,2013-11-07 04:10:00,
2013-11-06 23:15:00,50.5,43.9,30.03,SSW,203,1.0,1.0,78,0.00,CLR,,0.00,WeatherDisplay:10.37,2013-11-07 04:15:00,
2013-11-06 23:20:00,50.7,44.4,30.03,South,183,0.0,1.0,79,0.00,CLR,,0.00,WeatherDisplay:10.37,2013-11-07 04:20:00,
2013-11-06 23:25:00,50.9,44.6,30.03,SSE,154,0.0,0.0,79,0.00,CLR,,0.00,WeatherDisplay:10.37,2013-11-07 04:25:00,
2013-11-06 23:30:00,51.1,45.1,30.02,South,171,0.0,0.0,80,0.00,CLR,,0.00,WeatherDisplay:10.37,2013-11-07 04:30:00,
2013-11-06 23:35:00,51.3,45.3,30.00,SSE,167,0.0,2.0,80,0.00,CLR,,0.00,WeatherDisplay:10.37,2013-11-07 04:35:00,
2013-11-06 23:40:00,51.4,45.5,30.00,SSE,157,1.0,1.0,80,0.00,CLR,,0.00,WeatherDisplay:10.37,2013-11-07 04:40:00,
2013-11-06 23:45:00,51.6,46.0,30.00,South,175,1.0,2.0,81,0.00,CLR,,0.00,WeatherDisplay:10.37,2013-11-07 04:45:00,
2013-11-06 23:50:00,51.8,46.2,30.00,WSW,239,3.0,5.0,81,0.00,CLR,,0.00,WeatherDisplay:10.37,2013-11-07 04:50:00,
2013-11-06 23:55:00,52.2,46.5,30.00,West,265,5.0,5.0,81,0.00,CLR,,0.00,WeatherDisplay:10.37,2013-11-07 04:55:00,